createdAt,value
2023-09-01T08:04:20.065Z,3.00
2023-09-01T08:07:21.885Z,4.00
2023-09-01T08:10:22.688Z,5.00
2023-09-01T08:13:23.477Z,4.00
2023-09-01T08:16:24.263Z,4.00
2023-09-01T08:19:25.000Z,5.00
2023-09-01T08:22:25.814Z,6.00
2023-09-01T08:25:34.085Z,5.00
2023-09-01T08:28:27.373Z,6.00
2023-09-01T08:31:28.173Z,7.00
2023-09-01T08:34:29.820Z,4.00
2023-09-01T08:37:29.553Z,10.00
2023-09-01T08:40:30.328Z,9.00
2023-09-01T08:43:31.108Z,3.00
2023-09-01T08:46:31.895Z,2.00
2023-09-01T08:49:32.653Z,4.00
2023-09-01T08:53:40.828Z,4.00
2023-09-01T08:56:42.251Z,4.00
2023-09-01T08:59:43.234Z,4.00
2023-09-01T09:02:56.322Z,8.00
2023-09-01T09:05:44.389Z,5.00
2023-09-01T09:08:45.330Z,4.00
2023-09-01T09:11:45.951Z,6.00
2023-09-01T09:14:57.214Z,5.00
2023-09-01T09:17:47.344Z,6.00
2023-09-01T09:20:47.941Z,4.00
2023-09-01T09:23:48.847Z,4.00
2023-09-01T09:26:49.816Z,5.00
2023-09-01T09:29:51.680Z,8.00
2023-09-01T09:32:51.708Z,5.00
2023-09-01T09:35:52.128Z,5.00
2023-09-01T09:38:53.054Z,11.00
2023-09-01T09:41:53.995Z,4.00
2023-09-01T09:44:54.948Z,5.00
2023-09-01T09:47:55.625Z,5.00
2023-09-01T09:50:56.303Z,4.00
2023-09-01T09:53:58.702Z,5.00
2023-09-01T09:56:57.619Z,6.00
2023-09-01T09:59:58.580Z,6.00
2023-09-01T10:02:59.515Z,5.00
2023-09-01T10:06:00.481Z,6.00
2023-09-01T10:09:01.502Z,9.00
2023-09-01T10:12:01.958Z,4.00
2023-09-01T10:15:03.383Z,6.00
2023-09-01T10:18:03.878Z,7.00
2023-09-01T10:21:04.781Z,5.00
2023-09-01T10:24:05.686Z,5.00
2023-09-01T10:27:06.741Z,5.00
2023-09-01T10:30:07.161Z,8.00
2023-09-01T10:33:09.735Z,4.00
2023-09-01T10:36:09.124Z,7.00
2023-09-01T10:39:09.536Z,11.00
2023-09-01T10:42:10.480Z,8.00
2023-09-01T10:45:11.980Z,4.00
2023-09-01T10:48:11.997Z,4.00
2023-09-01T10:51:12.411Z,9.00
2023-09-01T10:54:13.377Z,9.00
2023-09-01T10:57:13.862Z,4.00
2023-09-01T11:00:16.700Z,6.00
2023-09-01T11:03:15.792Z,4.00
2023-09-01T11:06:16.168Z,4.00
2023-09-01T11:09:17.142Z,5.00
2023-09-01T11:12:17.555Z,5.00
2023-09-01T11:15:18.384Z,9.00
2023-09-01T11:18:19.724Z,5.00
2023-09-01T11:21:21.733Z,6.00
2023-09-01T11:24:20.612Z,8.00
2023-09-01T11:27:21.586Z,6.00
2023-09-01T11:30:22.172Z,6.00
2023-09-01T11:33:22.809Z,8.00
2023-09-01T11:36:23.130Z,15.00
2023-09-01T11:39:24.176Z,12.00
2023-09-01T11:42:24.593Z,11.00
2023-09-01T11:45:25.618Z,13.00
2023-09-01T11:48:28.027Z,8.00
2023-09-01T11:51:26.913Z,30.00
2023-09-01T11:54:27.861Z,8.00
2023-09-01T11:57:29.175Z,6.00
2023-09-01T12:00:29.607Z,12.00
2023-09-01T12:03:30.631Z,9.00
2023-09-01T12:06:31.307Z,15.00
2023-09-01T12:09:31.847Z,21.00
2023-09-01T12:12:32.246Z,18.00
2023-09-01T12:15:33.413Z,19.00
2023-09-01T12:18:33.942Z,6.00
2023-09-01T12:21:37.130Z,8.00
2023-09-01T12:24:35.610Z,18.00
2023-09-01T12:27:35.589Z,17.00
2023-09-01T12:30:36.060Z,8.00
2023-09-01T12:33:36.898Z,12.00
2023-09-01T12:36:37.311Z,8.00
2023-09-01T12:39:38.447Z,9.00
2023-09-01T12:42:38.988Z,14.00
2023-09-01T12:45:39.559Z,11.00
2023-09-01T12:48:40.087Z,11.00
2023-09-01T12:51:40.598Z,19.00
2023-09-01T12:54:41.470Z,31.00
2023-09-01T12:57:42.377Z,12.00
2023-09-01T13:00:44.156Z,22.00
2023-09-01T13:03:44.079Z,17.00
2023-09-01T13:06:45.027Z,9.00
2023-09-01T13:09:45.551Z,8.00
2023-09-01T13:12:46.010Z,5.00
2023-09-01T13:15:48.256Z,9.00
2023-09-01T13:18:47.652Z,7.00
2023-09-01T13:21:49.063Z,4.00
2023-09-01T13:24:49.519Z,4.00
2023-09-01T13:27:50.438Z,5.00
2023-09-01T13:30:51.365Z,7.00
2023-09-01T13:33:52.340Z,7.00
2023-09-01T13:36:52.789Z,6.00
2023-09-01T13:39:55.636Z,4.00
2023-09-01T13:42:54.379Z,4.00
2023-09-01T13:45:54.357Z,4.00
2023-09-01T13:48:55.793Z,5.00
2023-09-01T13:51:56.657Z,5.00
2023-09-01T13:54:56.627Z,6.00
2023-09-01T13:57:57.652Z,9.00
2023-09-01T14:00:58.241Z,8.00
2023-09-01T14:03:58.711Z,21.00
2023-09-01T14:06:59.096Z,21.00
2023-09-01T14:10:00.057Z,11.00
2023-09-01T14:13:00.937Z,7.00
2023-09-01T14:16:01.907Z,7.00
2023-09-01T14:19:02.910Z,5.00
2023-09-01T14:22:03.380Z,6.00
2023-09-01T14:25:04.312Z,9.00
2023-09-01T14:28:05.284Z,25.00
2023-09-01T14:31:05.738Z,13.00
2023-09-01T14:34:06.801Z,19.00
2023-09-01T14:37:07.397Z,25.00
2023-09-01T14:40:07.882Z,22.00
2023-09-01T14:43:09.239Z,55.00
2023-09-01T14:46:09.187Z,30.00
2023-09-01T14:49:10.170Z,25.00
2023-09-01T14:52:10.552Z,25.00
2023-09-01T14:55:11.672Z,28.00
2023-09-01T14:58:12.208Z,26.00
2023-09-01T15:01:12.658Z,13.00
2023-09-01T15:04:13.588Z,15.00
2023-09-01T15:07:14.544Z,41.00
2023-09-01T15:10:14.944Z,21.00
2023-09-01T15:13:16.292Z,59.00
2023-09-01T15:16:16.936Z,25.00
